메인 페이지
METAR-TAF:

METAR-TAF

공항 :

Kinloss, 스코틀랜드

위도: 57-39N, 경도: 003-34W, 고도: 7m

현재 날씨관측

예보는 38분 전, 15:50시(UTC)에 발표되었습니다.
북북동4kt
온도 17°C
습도 63%
기압 1014 hPa
시정 10km 이상

METAR: EGQK 201550Z AUTO 03004KT 9999 FEW045/// BKN059/// 17/10 Q1014

시각: 17:28 (16:28 UTC)


TAF: 누락

4,000개 이상의 공항 관측 자료 및 예보 (METAR 및 TAF 보고).

지도상에서 검색 가능한 기상관측소가 노란 점과 빨간 점으로 표시되어 있습니다.

기상관측소 명을 보려면 표시 위로 마우스를 이동하세요.

날씨 관측과 예보를 보려면 클릭하세요.

지도 변경 : 확대하려면 엑스 표시가 있는 녹색 버튼, 축소하려면 빼기 표시가 있는 녹색 버튼, 다음 페이지의 지도를 보려면 녹색 화살표를 클릭하세요.


METAR-TAF: